Hiyoshi Maru No21 — JK5518 — position and weather

sailwx.info

Track history (hours):
 
Tides and Currents Weather Stations Pressure Air Temp Water Temp Dewpoint Dewpoint Depression Visibility Wind Speed Wind Dir Waves Ship Positions

Hiyoshi Maru No21

Last reported at 2018-Jun-19 21:24 UTC. Time now 2018-Jun-19 22:17 UTC.
Position N 35°29' E 139°52'.

Length 72 m; draft 4 m.

Type: Tanker. MMSI: 432294000.

Date/timePositionNaut miles runAvg speedWind from/ knotsBaromVisibWave heightAir tempDewpointWater temp
2018-Jun-19 21:24N 35°29' E 139°52'513.1
2018-Jun-19 21:01N 35°25' E 139°48'612.7
2018-Jun-19 20:30N 35°20' E 139°44'611.9
2018-Jun-19 20:00N 35°14' E 139°47'812.4
2018-Jun-19 19:23N 35°07' E 139°45'  
2018-Jun-17 05:49N 35°11' E 139°46'412.7
2018-Jun-17 05:30N 35°15' E 139°46'613.0
2018-Jun-17 05:01N 35°21' E 139°42'5 9.9
2018-Jun-17 04:31N 35°25' E 139°39'0 0.0
2018-Jun-17 04:01N 35°25' E 139°39'0 0.0
2018-Jun-17 03:30N 35°25' E 139°39'0 0.0
2018-Jun-17 03:00N 35°25' E 139°39'0 0.0
2018-Jun-17 02:30N 35°25' E 139°39'0 0.0
2018-Jun-17 02:00N 35°25' E 139°39'0 0.0
2018-Jun-17 01:31N 35°25' E 139°39'0 0.0
2018-Jun-17 01:00N 35°25' E 139°39'0 0.0
2018-Jun-17 00:30N 35°25' E 139°39'0 0.0
2018-Jun-17 00:00N 35°25' E 139°39'0 0.0
2018-Jun-16 23:29N 35°25' E 139°39'1 1.7
2018-Jun-16 23:00N 35°24' E 139°39'2 3.7
2018-Jun-16 22:30N 35°22' E 139°40'0 0.0
2018-Jun-16 22:00N 35°22' E 139°40'0 0.0
2018-Jun-16 21:30N 35°22' E 139°40'0 0.0
2018-Jun-16 21:00N 35°22' E 139°40'0 0.0
2018-Jun-16 20:30N 35°22' E 139°40'0 0.0
2018-Jun-16 20:01N 35°22' E 139°40'0 0.0
2018-Jun-16 19:31N 35°22' E 139°40'0 0.0
2018-Jun-16 19:00N 35°22' E 139°40'0 0.0
2018-Jun-16 18:30N 35°22' E 139°40'0 0.0
2018-Jun-16 18:00N 35°22' E 139°40'0 0.0
2018-Jun-16 17:30N 35°22' E 139°40'0 0.0
2018-Jun-16 17:00N 35°22' E 139°40'0 0.0
2018-Jun-16 16:30N 35°22' E 139°40'0 0.0
2018-Jun-16 16:00N 35°22' E 139°40'0 0.0
2018-Jun-16 15:30N 35°22' E 139°40'0 0.0
2018-Jun-16 15:00N 35°22' E 139°40'0 0.0
2018-Jun-16 14:30N 35°22' E 139°40'0 0.1
2018-Jun-16 14:01N 35°22' E 139°40'0 0.0
2018-Jun-16 13:31N 35°22' E 139°40'0 0.0
2018-Jun-16 13:00N 35°22' E 139°40'0 0.0
2018-Jun-16 12:31N 35°22' E 139°40'0 0.0
2018-Jun-16 12:00N 35°22' E 139°40'0 0.0
2018-Jun-16 11:30N 35°22' E 139°40'0 0.0
2018-Jun-16 11:01N 35°22' E 139°40'0 0.0
2018-Jun-16 10:31N 35°22' E 139°40'0 0.0
2018-Jun-16 10:00N 35°22' E 139°40'0 0.0
2018-Jun-16 09:31N 35°22' E 139°40'0 0.0
2018-Jun-16 09:01N 35°22' E 139°40'0 0.0
2018-Jun-16 08:30N 35°22' E 139°40'0 0.0
2018-Jun-16 08:00N 35°22' E 139°40'0 0.0
2018-Jun-16 07:31N 35°22' E 139°40'2 3.3
2018-Jun-16 07:01N 35°21' E 139°42'713.1
2018-Jun-16 06:31N 35°16' E 139°46'25010.8
2018-Jun-15 07:21N 33°55' E 134°58'513.1
2018-Jun-15 07:01N 33°60' E 134°58'713.3
2018-Jun-15 06:30N 34°06' E 134°58'815.3
2018-Jun-15 06:00N 34°14' E 134°58'815.4
2018-Jun-15 05:30N 34°22' E 134°60'713.9
2018-Jun-15 05:00N 34°28' E 135°02'714.1
2018-Jun-15 04:31N 34°35' E 135°04'815.4
2018-Jun-15 03:59N 34°37' E 134°54'814.9
2018-Jun-15 03:29N 34°39' E 134°45'10 1.0
2018-Jun-14 16:44N 34°45' E 134°35'  
Track history (hours):
 
Tides and Currents Weather Stations Pressure Air Temp Water Temp Dewpoint Dewpoint Depression Visibility Wind Speed Wind Dir Waves Ship Positions

Hiyoshi Maru No21

Last reported at 2018-Jun-19 21:24 UTC. Time now 2018-Jun-19 22:17 UTC.
Position N 35°29' E 139°52'.

Length 72 m; draft 4 m.

Type: Tanker. MMSI: 432294000.

Date/timePositionNaut miles runAvg speedWind from/ knotsBaromVisibWave heightAir tempDewpointWater temp
2018-Jun-19 21:24N 35°29' E 139°52'513.1
2018-Jun-19 21:01N 35°25' E 139°48'612.7
2018-Jun-19 20:30N 35°20' E 139°44'611.9
2018-Jun-19 20:00N 35°14' E 139°47'812.4
2018-Jun-19 19:23N 35°07' E 139°45'  
2018-Jun-17 05:49N 35°11' E 139°46'412.7
2018-Jun-17 05:30N 35°15' E 139°46'613.0
2018-Jun-17 05:01N 35°21' E 139°42'5 9.9
2018-Jun-17 04:31N 35°25' E 139°39'0 0.0
2018-Jun-17 04:01N 35°25' E 139°39'0 0.0
2018-Jun-17 03:30N 35°25' E 139°39'0 0.0
2018-Jun-17 03:00N 35°25' E 139°39'0 0.0
2018-Jun-17 02:30N 35°25' E 139°39'0 0.0
2018-Jun-17 02:00N 35°25' E 139°39'0 0.0
2018-Jun-17 01:31N 35°25' E 139°39'0 0.0
2018-Jun-17 01:00N 35°25' E 139°39'0 0.0
2018-Jun-17 00:30N 35°25' E 139°39'0 0.0
2018-Jun-17 00:00N 35°25' E 139°39'0 0.0
2018-Jun-16 23:29N 35°25' E 139°39'1 1.7
2018-Jun-16 23:00N 35°24' E 139°39'2 3.7
2018-Jun-16 22:30N 35°22' E 139°40'0 0.0
2018-Jun-16 22:00N 35°22' E 139°40'0 0.0
2018-Jun-16 21:30N 35°22' E 139°40'0 0.0
2018-Jun-16 21:00N 35°22' E 139°40'0 0.0
2018-Jun-16 20:30N 35°22' E 139°40'0 0.0
2018-Jun-16 20:01N 35°22' E 139°40'0 0.0
2018-Jun-16 19:31N 35°22' E 139°40'0 0.0
2018-Jun-16 19:00N 35°22' E 139°40'0 0.0
2018-Jun-16 18:30N 35°22' E 139°40'0 0.0
2018-Jun-16 18:00N 35°22' E 139°40'0 0.0
2018-Jun-16 17:30N 35°22' E 139°40'0 0.0
2018-Jun-16 17:00N 35°22' E 139°40'0 0.0
2018-Jun-16 16:30N 35°22' E 139°40'0 0.0
2018-Jun-16 16:00N 35°22' E 139°40'0 0.0
2018-Jun-16 15:30N 35°22' E 139°40'0 0.0
2018-Jun-16 15:00N 35°22' E 139°40'0 0.0
2018-Jun-16 14:30N 35°22' E 139°40'0 0.1
2018-Jun-16 14:01N 35°22' E 139°40'0 0.0
2018-Jun-16 13:31N 35°22' E 139°40'0 0.0
2018-Jun-16 13:00N 35°22' E 139°40'0 0.0
2018-Jun-16 12:31N 35°22' E 139°40'0 0.0
2018-Jun-16 12:00N 35°22' E 139°40'0 0.0
2018-Jun-16 11:30N 35°22' E 139°40'0 0.0
2018-Jun-16 11:01N 35°22' E 139°40'0 0.0
2018-Jun-16 10:31N 35°22' E 139°40'0 0.0
2018-Jun-16 10:00N 35°22' E 139°40'0 0.0
2018-Jun-16 09:31N 35°22' E 139°40'0 0.0
2018-Jun-16 09:01N 35°22' E 139°40'0 0.0
2018-Jun-16 08:30N 35°22' E 139°40'0 0.0
2018-Jun-16 08:00N 35°22' E 139°40'0 0.0
2018-Jun-16 07:31N 35°22' E 139°40'2 3.3
2018-Jun-16 07:01N 35°21' E 139°42'713.1
2018-Jun-16 06:31N 35°16' E 139°46'25010.8
2018-Jun-15 07:21N 33°55' E 134°58'513.1
2018-Jun-15 07:01N 33°60' E 134°58'713.3
2018-Jun-15 06:30N 34°06' E 134°58'815.3
2018-Jun-15 06:00N 34°14' E 134°58'815.4
2018-Jun-15 05:30N 34°22' E 134°60'713.9
2018-Jun-15 05:00N 34°28' E 135°02'714.1
2018-Jun-15 04:31N 34°35' E 135°04'815.4
2018-Jun-15 03:59N 34°37' E 134°54'814.9
2018-Jun-15 03:29N 34°39' E 134°45'10 1.0
2018-Jun-14 16:44N 34°45' E 134°35'  

Dump ship's entire track history